sensor_id;sensor_type;location;lat;lon;timestamp;pressure;altitude;pressure_sealevel;temperature;humidity
63405;BME280;49541;57.840;12.306;2023-06-22T00:04:56;100727.31;;;17.18;81.25
63405;BME280;49541;57.840;12.306;2023-06-22T00:09:56;100723.19;;;16.91;82.20
63405;BME280;49541;57.840;12.306;2023-06-22T00:14:56;100725.19;;;16.73;83.65
63405;BME280;49541;57.840;12.306;2023-06-22T00:19:56;100728.22;;;16.70;83.15
63405;BME280;49541;57.840;12.306;2023-06-22T00:24:58;100730.75;;;16.71;82.50
63405;BME280;49541;57.840;12.306;2023-06-22T00:29:58;100711.22;;;16.77;81.78
63405;BME280;49541;57.840;12.306;2023-06-22T00:34:59;100725.03;;;16.66;82.52
63405;BME280;49541;57.840;12.306;2023-06-22T00:40:00;100715.47;;;16.64;82.68
63405;BME280;49541;57.840;12.306;2023-06-22T00:45:00;100708.06;;;16.66;82.78
63405;BME280;49541;57.840;12.306;2023-06-22T00:50:00;100712.09;;;16.62;83.61
63405;BME280;49541;57.840;12.306;2023-06-22T00:55:01;100724.84;;;16.92;81.86
63405;BME280;49541;57.840;12.306;2023-06-22T01:00:02;100738.66;;;16.81;82.24
63405;BME280;49541;57.840;12.306;2023-06-22T01:05:13;100721.00;;;16.62;83.37
63405;BME280;49541;57.840;12.306;2023-06-22T01:10:22;100720.00;;;16.47;83.92
63405;BME280;49541;57.840;12.306;2023-06-22T01:15:26;100729.41;;;16.34;84.65
63405;BME280;49541;57.840;12.306;2023-06-22T01:20:28;100735.28;;;16.38;84.40
63405;BME280;49541;57.840;12.306;2023-06-22T01:25:50;100748.56;;;16.31;84.49
63405;BME280;49541;57.840;12.306;2023-06-22T01:30:51;100741.84;;;16.35;85.19
63405;BME280;49541;57.840;12.306;2023-06-22T01:36:03;100747.53;;;16.41;84.16
63405;BME280;49541;57.840;12.306;2023-06-22T01:41:04;100750.06;;;16.34;84.14
63405;BME280;49541;57.840;12.306;2023-06-22T01:46:05;100744.19;;;16.38;83.93
63405;BME280;49541;57.840;12.306;2023-06-22T01:51:06;100750.56;;;16.54;83.42
63405;BME280;49541;57.840;12.306;2023-06-22T01:56:06;100750.91;;;16.84;82.40
63405;BME280;49541;57.840;12.306;2023-06-22T02:06:11;100754.75;;;16.65;83.26
63405;BME280;49541;57.840;12.306;2023-06-22T02:11:14;100751.06;;;16.98;82.26
63405;BME280;49541;57.840;12.306;2023-06-22T02:16:16;100764.50;;;16.98;82.11
63405;BME280;49541;57.840;12.306;2023-06-22T02:21:18;100754.63;;;16.83;83.15
63405;BME280;49541;57.840;12.306;2023-06-22T02:26:18;100767.03;;;16.75;83.52
63405;BME280;49541;57.840;12.306;2023-06-22T02:31:19;100766.19;;;16.75;84.01
63405;BME280;49541;57.840;12.306;2023-06-22T02:36:20;100763.84;;;16.88;83.69
63405;BME280;49541;57.840;12.306;2023-06-22T02:41:23;100768.75;;;16.93;83.51
63405;BME280;49541;57.840;12.306;2023-06-22T02:46:24;100772.72;;;17.13;83.21
63405;BME280;49541;57.840;12.306;2023-06-22T02:51:24;100776.44;;;16.79;84.81
63405;BME280;49541;57.840;12.306;2023-06-22T02:56:24;100767.56;;;16.54;86.23
63405;BME280;49541;57.840;12.306;2023-06-22T03:01:24;100769.22;;;16.64;86.90
63405;BME280;49541;57.840;12.306;2023-06-22T03:06:25;100775.09;;;16.75;86.07
63405;BME280;49541;57.840;12.306;2023-06-22T03:11:28;100787.00;;;16.65;86.58
63405;BME280;49541;57.840;12.306;2023-06-22T03:16:28;100782.50;;;16.90;86.23
63405;BME280;49541;57.840;12.306;2023-06-22T03:21:29;100780.31;;;17.02;84.85
63405;BME280;49541;57.840;12.306;2023-06-22T03:26:29;100801.00;;;16.93;85.48
63405;BME280;49541;57.840;12.306;2023-06-22T03:31:30;100798.97;;;16.78;85.79
63405;BME280;49541;57.840;12.306;2023-06-22T03:36:30;100802.34;;;16.81;85.62
63405;BME280;49541;57.840;12.306;2023-06-22T03:41:30;100805.31;;;16.77;85.60
63405;BME280;49541;57.840;12.306;2023-06-22T03:46:30;100800.28;;;16.66;86.57
63405;BME280;49541;57.840;12.306;2023-06-22T03:51:30;100806.69;;;16.82;86.03
63405;BME280;49541;57.840;12.306;2023-06-22T03:56:30;100816.47;;;16.83;85.18
63405;BME280;49541;57.840;12.306;2023-06-22T04:01:31;100823.84;;;16.97;85.29
63405;BME280;49541;57.840;12.306;2023-06-22T04:06:31;100831.91;;;17.22;83.52
63405;BME280;49541;57.840;12.306;2023-06-22T04:11:33;100831.41;;;16.93;85.02
63405;BME280;49541;57.840;12.306;2023-06-22T04:16:33;100842.34;;;16.84;84.74
63405;BME280;49541;57.840;12.306;2023-06-22T04:21:33;100834.56;;;16.72;85.75
63405;BME280;49541;57.840;12.306;2023-06-22T04:26:34;100841.97;;;16.95;85.09
63405;BME280;49541;57.840;12.306;2023-06-22T04:31:36;100837.63;;;17.02;85.31
63405;BME280;49541;57.840;12.306;2023-06-22T04:36:39;100848.19;;;17.28;83.03
63405;BME280;49541;57.840;12.306;2023-06-22T04:41:40;100842.34;;;17.08;84.17
63405;BME280;49541;57.840;12.306;2023-06-22T04:46:43;100842.97;;;17.27;82.64
63405;BME280;49541;57.840;12.306;2023-06-22T04:51:43;100840.41;;;17.50;81.78
63405;BME280;49541;57.840;12.306;2023-06-22T04:56:43;100855.75;;;17.33;81.68
63405;BME280;49541;57.840;12.306;2023-06-22T05:01:46;100857.38;;;17.50;80.86
63405;BME280;49541;57.840;12.306;2023-06-22T05:06:46;100852.06;;;17.34;82.44
63405;BME280;49541;57.840;12.306;2023-06-22T05:11:46;100850.50;;;17.48;81.35
63405;BME280;49541;57.840;12.306;2023-06-22T05:16:48;100848.31;;;17.51;81.40
63405;BME280;49541;57.840;12.306;2023-06-22T05:21:48;100852.97;;;17.66;81.11
63405;BME280;49541;57.840;12.306;2023-06-22T05:26:48;100854.44;;;17.76;80.45
63405;BME280;49541;57.840;12.306;2023-06-22T05:31:49;100852.34;;;17.55;81.28
63405;BME280;49541;57.840;12.306;2023-06-22T05:36:49;100838.50;;;17.75;80.35
63405;BME280;49541;57.840;12.306;2023-06-22T05:41:49;100844.59;;;17.52;81.13
63405;BME280;49541;57.840;12.306;2023-06-22T05:46:49;100844.91;;;17.66;80.94
63405;BME280;49541;57.840;12.306;2023-06-22T05:51:50;100848.56;;;17.81;79.92
63405;BME280;49541;57.840;12.306;2023-06-22T05:56:50;100846.91;;;17.72;79.81
63405;BME280;49541;57.840;12.306;2023-06-22T06:01:51;100853.34;;;17.54;80.60
63405;BME280;49541;57.840;12.306;2023-06-22T06:06:51;100859.66;;;17.94;79.90
63405;BME280;49541;57.840;12.306;2023-06-22T06:11:51;100858.47;;;17.80;79.25
63405;BME280;49541;57.840;12.306;2023-06-22T06:16:51;100861.31;;;17.95;79.60
63405;BME280;49541;57.840;12.306;2023-06-22T06:21:51;100870.84;;;18.46;77.01
63405;BME280;49541;57.840;12.306;2023-06-22T06:26:51;100863.72;;;18.21;77.61
63405;BME280;49541;57.840;12.306;2023-06-22T06:31:52;100866.41;;;18.21;77.33
63405;BME280;49541;57.840;12.306;2023-06-22T06:36:52;100867.88;;;18.32;75.86
63405;BME280;49541;57.840;12.306;2023-06-22T06:41:52;100877.28;;;18.36;77.09
63405;BME280;49541;57.840;12.306;2023-06-22T06:46:52;100893.31;;;18.61;74.65
63405;BME280;49541;57.840;12.306;2023-06-22T06:51:54;100893.41;;;18.45;75.47
63405;BME280;49541;57.840;12.306;2023-06-22T06:56:55;100882.53;;;18.61;75.42
63405;BME280;49541;57.840;12.306;2023-06-22T07:01:56;100879.84;;;18.61;75.67
63405;BME280;49541;57.840;12.306;2023-06-22T07:06:56;100888.44;;;18.88;74.55
63405;BME280;49541;57.840;12.306;2023-06-22T07:11:56;100892.88;;;18.80;74.97
63405;BME280;49541;57.840;12.306;2023-06-22T07:16:56;100898.06;;;19.05;74.14
63405;BME280;49541;57.840;12.306;2023-06-22T07:21:57;100897.72;;;18.85;74.66
63405;BME280;49541;57.840;12.306;2023-06-22T07:26:57;100891.69;;;19.06;75.00
63405;BME280;49541;57.840;12.306;2023-06-22T07:31:59;100899.13;;;19.57;71.98
63405;BME280;49541;57.840;12.306;2023-06-22T07:37:00;100898.19;;;19.50;72.20
63405;BME280;49541;57.840;12.306;2023-06-22T07:42:01;100900.19;;;19.33;71.80
63405;BME280;49541;57.840;12.306;2023-06-22T07:47:01;100898.00;;;19.51;71.02
63405;BME280;49541;57.840;12.306;2023-06-22T07:52:01;100912.97;;;19.77;70.77
63405;BME280;49541;57.840;12.306;2023-06-22T07:57:02;100899.50;;;19.54;70.20
63405;BME280;49541;57.840;12.306;2023-06-22T08:02:02;100889.34;;;19.41;69.87
63405;BME280;49541;57.840;12.306;2023-06-22T08:07:03;100918.38;;;19.77;69.30
63405;BME280;49541;57.840;12.306;2023-06-22T08:12:04;100922.09;;;19.91;69.25
63405;BME280;49541;57.840;12.306;2023-06-22T08:17:04;100912.75;;;19.93;68.28
63405;BME280;49541;57.840;12.306;2023-06-22T08:22:04;100912.56;;;20.24;66.04
63405;BME280;49541;57.840;12.306;2023-06-22T08:27:06;100916.81;;;20.34;65.79
63405;BME280;49541;57.840;12.306;2023-06-22T08:32:08;100914.97;;;20.19;65.30
63405;BME280;49541;57.840;12.306;2023-06-22T08:37:09;100908.25;;;20.30;65.54
63405;BME280;49541;57.840;12.306;2023-06-22T08:42:09;100910.28;;;20.58;65.18
63405;BME280;49541;57.840;12.306;2023-06-22T08:47:09;100922.06;;;20.35;65.63
63405;BME280;49541;57.840;12.306;2023-06-22T08:52:09;100920.06;;;20.59;64.17
63405;BME280;49541;57.840;12.306;2023-06-22T08:57:09;100924.09;;;20.84;61.25
63405;BME280;49541;57.840;12.306;2023-06-22T09:02:10;100924.78;;;20.72;62.40
63405;BME280;49541;57.840;12.306;2023-06-22T09:07:10;100916.28;;;20.96;61.57
63405;BME280;49541;57.840;12.306;2023-06-22T09:12:11;100914.03;;;21.21;60.46
63405;BME280;49541;57.840;12.306;2023-06-22T09:17:12;100918.63;;;21.42;59.19
63405;BME280;49541;57.840;12.306;2023-06-22T09:22:12;100918.84;;;21.47;60.15
63405;BME280;49541;57.840;12.306;2023-06-22T09:27:12;100921.75;;;21.03;59.57
63405;BME280;49541;57.840;12.306;2023-06-22T09:32:12;100922.91;;;21.37;57.85
63405;BME280;49541;57.840;12.306;2023-06-22T09:37:13;100921.38;;;21.49;57.95
63405;BME280;49541;57.840;12.306;2023-06-22T09:42:13;100913.34;;;22.04;56.62
63405;BME280;49541;57.840;12.306;2023-06-22T09:47:13;100920.25;;;21.72;56.14
63405;BME280;49541;57.840;12.306;2023-06-22T09:52:13;100912.84;;;21.87;57.00
63405;BME280;49541;57.840;12.306;2023-06-22T09:57:14;100916.91;;;22.39;55.24
63405;BME280;49541;57.840;12.306;2023-06-22T10:02:14;100912.44;;;22.25;56.55
63405;BME280;49541;57.840;12.306;2023-06-22T10:07:14;100917.88;;;22.25;56.32
63405;BME280;49541;57.840;12.306;2023-06-22T10:12:15;100921.63;;;21.89;57.62
63405;BME280;49541;57.840;12.306;2023-06-22T10:17:15;100923.16;;;22.46;54.65
63405;BME280;49541;57.840;12.306;2023-06-22T10:22:15;100907.66;;;22.27;54.28
63405;BME280;49541;57.840;12.306;2023-06-22T10:27:15;100914.91;;;22.81;53.38
63405;BME280;49541;57.840;12.306;2023-06-22T10:32:16;100919.88;;;22.71;54.19
63405;BME280;49541;57.840;12.306;2023-06-22T10:37:16;100918.69;;;22.94;54.25
63405;BME280;49541;57.840;12.306;2023-06-22T10:42:16;100913.84;;;22.21;58.13
63405;BME280;49541;57.840;12.306;2023-06-22T10:47:16;100914.53;;;21.88;58.97
63405;BME280;49541;57.840;12.306;2023-06-22T10:52:16;100913.63;;;21.81;59.22
63405;BME280;49541;57.840;12.306;2023-06-22T10:57:16;100918.28;;;21.59;60.22
63405;BME280;49541;57.840;12.306;2023-06-22T11:02:17;100916.00;;;21.56;60.66
63405;BME280;49541;57.840;12.306;2023-06-22T11:07:17;100926.47;;;21.65;60.12
63405;BME280;49541;57.840;12.306;2023-06-22T11:12:17;100924.94;;;21.56;59.36
63405;BME280;49541;57.840;12.306;2023-06-22T11:17:17;100936.72;;;21.42;61.22
63405;BME280;49541;57.840;12.306;2023-06-22T11:22:18;100925.75;;;21.07;61.47
63405;BME280;49541;57.840;12.306;2023-06-22T11:27:18;100926.50;;;21.44;61.57
63405;BME280;49541;57.840;12.306;2023-06-22T11:32:18;100938.63;;;21.26;60.47
63405;BME280;49541;57.840;12.306;2023-06-22T11:37:19;100922.53;;;22.03;58.26
63405;BME280;49541;57.840;12.306;2023-06-22T11:42:19;100928.22;;;21.23;60.12
63405;BME280;49541;57.840;12.306;2023-06-22T11:47:19;100928.97;;;21.39;60.96
63405;BME280;49541;57.840;12.306;2023-06-22T11:52:19;100917.16;;;21.75;58.99
63405;BME280;49541;57.840;12.306;2023-06-22T11:57:19;100913.31;;;21.97;59.23
63405;BME280;49541;57.840;12.306;2023-06-22T12:02:20;100928.66;;;22.73;56.15
63405;BME280;49541;57.840;12.306;2023-06-22T12:07:20;100920.91;;;22.50;55.99
63405;BME280;49541;57.840;12.306;2023-06-22T12:12:20;100923.66;;;22.63;56.40
63405;BME280;49541;57.840;12.306;2023-06-22T12:17:20;100934.03;;;22.46;54.99
63405;BME280;49541;57.840;12.306;2023-06-22T12:22:20;100931.06;;;23.56;52.68
63405;BME280;49541;57.840;12.306;2023-06-22T12:27:21;100942.53;;;23.18;51.84
63405;BME280;49541;57.840;12.306;2023-06-22T12:32:21;100928.34;;;22.00;57.37
63405;BME280;49541;57.840;12.306;2023-06-22T12:37:21;100925.31;;;22.71;55.36
63405;BME280;49541;57.840;12.306;2023-06-22T12:42:22;100912.28;;;23.15;51.05
63405;BME280;49541;57.840;12.306;2023-06-22T12:47:22;100911.75;;;22.64;53.16
63405;BME280;49541;57.840;12.306;2023-06-22T12:52:22;100905.78;;;23.29;51.70
63405;BME280;49541;57.840;12.306;2023-06-22T12:57:22;100911.38;;;23.94;49.15
63405;BME280;49541;57.840;12.306;2023-06-22T13:02:23;100910.81;;;23.45;51.17
63405;BME280;49541;57.840;12.306;2023-06-22T13:07:23;100910.81;;;23.39;51.44
63405;BME280;49541;57.840;12.306;2023-06-22T13:12:23;100909.97;;;23.38;52.09
63405;BME280;49541;57.840;12.306;2023-06-22T13:17:24;100916.81;;;23.67;50.40
63405;BME280;49541;57.840;12.306;2023-06-22T13:27:30;100906.13;;;22.73;52.67
63405;BME280;49541;57.840;12.306;2023-06-22T13:32:30;100914.94;;;22.95;52.89
63405;BME280;49541;57.840;12.306;2023-06-22T13:37:30;100907.88;;;23.47;51.08
63405;BME280;49541;57.840;12.306;2023-06-22T13:42:31;100907.44;;;23.50;49.35
63405;BME280;49541;57.840;12.306;2023-06-22T13:47:31;100909.03;;;24.04;49.37
63405;BME280;49541;57.840;12.306;2023-06-22T13:52:31;100901.00;;;23.04;51.06
63405;BME280;49541;57.840;12.306;2023-06-22T13:57:31;100908.22;;;22.90;50.00
63405;BME280;49541;57.840;12.306;2023-06-22T14:02:31;100896.50;;;22.50;54.01
63405;BME280;49541;57.840;12.306;2023-06-22T14:07:32;100898.41;;;22.76;53.14
63405;BME280;49541;57.840;12.306;2023-06-22T14:12:32;100892.19;;;23.36;51.77
63405;BME280;49541;57.840;12.306;2023-06-22T14:17:32;100891.75;;;22.99;52.51
63405;BME280;49541;57.840;12.306;2023-06-22T14:22:32;100889.06;;;23.19;52.75
63405;BME280;49541;57.840;12.306;2023-06-22T14:27:32;100902.78;;;22.70;49.20
63405;BME280;49541;57.840;12.306;2023-06-22T14:32:33;100892.41;;;23.14;48.22
63405;BME280;49541;57.840;12.306;2023-06-22T14:37:33;100890.72;;;23.00;47.36
63405;BME280;49541;57.840;12.306;2023-06-22T14:42:33;100874.41;;;22.86;47.34
63405;BME280;49541;57.840;12.306;2023-06-22T14:47:33;100865.25;;;23.14;46.22
63405;BME280;49541;57.840;12.306;2023-06-22T14:52:33;100877.19;;;23.13;48.15
63405;BME280;49541;57.840;12.306;2023-06-22T14:57:33;100875.63;;;22.51;46.18
63405;BME280;49541;57.840;12.306;2023-06-22T15:02:34;100885.88;;;22.68;46.88
63405;BME280;49541;57.840;12.306;2023-06-22T15:07:34;100883.31;;;22.54;49.51
63405;BME280;49541;57.840;12.306;2023-06-22T15:12:34;100869.41;;;22.70;47.64
63405;BME280;49541;57.840;12.306;2023-06-22T15:17:34;100874.19;;;22.81;45.77
63405;BME280;49541;57.840;12.306;2023-06-22T15:22:34;100873.13;;;22.76;46.12
63405;BME280;49541;57.840;12.306;2023-06-22T15:27:35;100857.47;;;22.71;45.45
63405;BME280;49541;57.840;12.306;2023-06-22T15:32:35;100844.78;;;22.92;44.50
63405;BME280;49541;57.840;12.306;2023-06-22T15:37:35;100856.66;;;22.90;44.45
63405;BME280;49541;57.840;12.306;2023-06-22T15:42:35;100843.56;;;23.27;43.63
63405;BME280;49541;57.840;12.306;2023-06-22T15:47:35;100841.44;;;22.63;43.92
63405;BME280;49541;57.840;12.306;2023-06-22T15:52:36;100824.63;;;22.26;45.63
63405;BME280;49541;57.840;12.306;2023-06-22T15:57:37;100829.06;;;22.40;44.94
63405;BME280;49541;57.840;12.306;2023-06-22T16:02:37;100825.00;;;22.09;45.65
63405;BME280;49541;57.840;12.306;2023-06-22T16:07:37;100829.06;;;21.85;45.94
63405;BME280;49541;57.840;12.306;2023-06-22T16:12:37;100822.81;;;21.50;46.56
63405;BME280;49541;57.840;12.306;2023-06-22T16:17:41;100826.94;;;21.18;46.41
63405;BME280;49541;57.840;12.306;2023-06-22T16:22:41;100840.72;;;20.73;47.43
63405;BME280;49541;57.840;12.306;2023-06-22T16:27:43;100830.94;;;20.72;47.11
63405;BME280;49541;57.840;12.306;2023-06-22T16:32:54;100828.25;;;20.72;46.74
63405;BME280;49541;57.840;12.306;2023-06-22T16:37:54;100822.19;;;21.20;44.94
63405;BME280;49541;57.840;12.306;2023-06-22T16:42:55;100830.06;;;21.43;44.09
63405;BME280;49541;57.840;12.306;2023-06-22T16:47:55;100832.59;;;21.23;44.94
63405;BME280;49541;57.840;12.306;2023-06-22T16:52:55;100830.16;;;21.00;46.39
63405;BME280;49541;57.840;12.306;2023-06-22T16:57:56;100828.38;;;21.42;45.47
63405;BME280;49541;57.840;12.306;2023-06-22T17:02:57;100808.59;;;21.83;45.06
63405;BME280;49541;57.840;12.306;2023-06-22T17:08:01;100814.44;;;21.80;44.80
63405;BME280;49541;57.840;12.306;2023-06-22T17:13:02;100808.94;;;21.60;45.60
63405;BME280;49541;57.840;12.306;2023-06-22T17:18:04;100816.00;;;21.61;44.60
63405;BME280;49541;57.840;12.306;2023-06-22T17:23:04;100811.13;;;21.43;43.83
63405;BME280;49541;57.840;12.306;2023-06-22T17:28:04;100816.63;;;21.28;43.58
63405;BME280;49541;57.840;12.306;2023-06-22T17:33:07;100816.47;;;21.08;43.38
63405;BME280;49541;57.840;12.306;2023-06-22T17:38:08;100804.50;;;21.24;44.66
63405;BME280;49541;57.840;12.306;2023-06-22T17:43:08;100790.00;;;21.32;45.15
63405;BME280;49541;57.840;12.306;2023-06-22T17:48:09;100791.31;;;21.14;46.58
63405;BME280;49541;57.840;12.306;2023-06-22T17:53:10;100787.09;;;21.40;46.62
63405;BME280;49541;57.840;12.306;2023-06-22T17:58:11;100793.94;;;21.36;46.58
63405;BME280;49541;57.840;12.306;2023-06-22T18:03:12;100783.53;;;20.76;48.59
63405;BME280;49541;57.840;12.306;2023-06-22T18:08:12;100779.03;;;20.62;49.48
63405;BME280;49541;57.840;12.306;2023-06-22T18:13:13;100771.34;;;20.87;49.82
63405;BME280;49541;57.840;12.306;2023-06-22T18:18:14;100772.28;;;21.01;49.52
63405;BME280;49541;57.840;12.306;2023-06-22T18:23:15;100786.13;;;21.13;48.88
63405;BME280;49541;57.840;12.306;2023-06-22T18:28:17;100774.38;;;21.05;48.85
63405;BME280;49541;57.840;12.306;2023-06-22T18:33:18;100779.41;;;20.80;50.96
63405;BME280;49541;57.840;12.306;2023-06-22T18:38:19;100783.53;;;20.55;50.77
63405;BME280;49541;57.840;12.306;2023-06-22T18:43:20;100785.78;;;20.30;51.94
63405;BME280;49541;57.840;12.306;2023-06-22T18:48:23;100778.00;;;20.41;52.21
63405;BME280;49541;57.840;12.306;2023-06-22T18:53:26;100787.00;;;20.27;53.14
63405;BME280;49541;57.840;12.306;2023-06-22T18:58:27;100776.66;;;19.94;54.90
63405;BME280;49541;57.840;12.306;2023-06-22T19:03:28;100786.56;;;19.72;55.73
63405;BME280;49541;57.840;12.306;2023-06-22T19:09:11;100789.16;;;19.65;56.53
63405;BME280;49541;57.840;12.306;2023-06-22T19:13:50;100772.50;;;19.62;57.15
63405;BME280;49541;57.840;12.306;2023-06-22T19:18:50;100770.38;;;19.42;57.34
63405;BME280;49541;57.840;12.306;2023-06-22T19:23:55;100770.53;;;19.11;59.12
63405;BME280;49541;57.840;12.306;2023-06-22T19:28:55;100764.38;;;19.02;59.71
63405;BME280;49541;57.840;12.306;2023-06-22T19:34:00;100775.75;;;19.13;59.12
63405;BME280;49541;57.840;12.306;2023-06-22T19:39:01;100774.03;;;18.97;59.77
63405;BME280;49541;57.840;12.306;2023-06-22T19:44:01;100756.84;;;18.98;60.01
63405;BME280;49541;57.840;12.306;2023-06-22T19:49:03;100758.50;;;18.99;59.47
63405;BME280;49541;57.840;12.306;2023-06-22T19:54:05;100769.63;;;19.04;59.62
63405;BME280;49541;57.840;12.306;2023-06-22T19:59:12;100757.97;;;18.89;61.16
63405;BME280;49541;57.840;12.306;2023-06-22T20:04:13;100766.44;;;18.77;61.47
63405;BME280;49541;57.840;12.306;2023-06-22T20:09:13;100773.88;;;18.75;62.10
63405;BME280;49541;57.840;12.306;2023-06-22T20:14:14;100765.69;;;18.92;61.30
63405;BME280;49541;57.840;12.306;2023-06-22T20:19:14;100764.56;;;18.63;63.03
63405;BME280;49541;57.840;12.306;2023-06-22T20:24:15;100770.97;;;18.62;63.51
63405;BME280;49541;57.840;12.306;2023-06-22T20:29:23;100764.94;;;18.98;62.46
63405;BME280;49541;57.840;12.306;2023-06-22T20:34:25;100759.84;;;18.65;63.96
63405;BME280;49541;57.840;12.306;2023-06-22T20:39:25;100758.50;;;18.61;64.95
63405;BME280;49541;57.840;12.306;2023-06-22T20:44:25;100755.16;;;18.36;66.17
63405;BME280;49541;57.840;12.306;2023-06-22T20:49:25;100741.53;;;18.37;66.50
63405;BME280;49541;57.840;12.306;2023-06-22T20:54:28;100755.94;;;18.45;66.18
63405;BME280;49541;57.840;12.306;2023-06-22T20:59:28;100771.00;;;18.77;65.67
63405;BME280;49541;57.840;12.306;2023-06-22T21:04:29;100763.44;;;18.80;65.87
63405;BME280;49541;57.840;12.306;2023-06-22T21:09:29;100762.50;;;18.88;65.24
63405;BME280;49541;57.840;12.306;2023-06-22T21:14:29;100754.72;;;19.08;64.98
63405;BME280;49541;57.840;12.306;2023-06-22T21:19:29;100756.28;;;18.88;65.20
63405;BME280;49541;57.840;12.306;2023-06-22T21:24:29;100746.59;;;18.78;65.99
63405;BME280;49541;57.840;12.306;2023-06-22T21:29:29;100737.69;;;18.78;66.10
63405;BME280;49541;57.840;12.306;2023-06-22T21:34:30;100725.69;;;18.95;65.33
63405;BME280;49541;57.840;12.306;2023-06-22T21:39:30;100712.78;;;18.68;66.48
63405;BME280;49541;57.840;12.306;2023-06-22T21:44:30;100719.06;;;17.99;68.81
63405;BME280;49541;57.840;12.306;2023-06-22T21:49:30;100716.38;;;17.99;68.49
63405;BME280;49541;57.840;12.306;2023-06-22T21:54:31;100714.31;;;18.47;66.97
63405;BME280;49541;57.840;12.306;2023-06-22T21:59:31;100717.09;;;18.16;67.72
63405;BME280;49541;57.840;12.306;2023-06-22T22:04:31;100705.34;;;18.32;66.90
63405;BME280;49541;57.840;12.306;2023-06-22T22:09:31;100722.59;;;18.46;66.47
63405;BME280;49541;57.840;12.306;2023-06-22T22:14:31;100714.63;;;17.75;68.56
63405;BME280;49541;57.840;12.306;2023-06-22T22:19:32;100714.69;;;17.67;68.73
63405;BME280;49541;57.840;12.306;2023-06-22T22:24:32;100710.66;;;17.63;69.01
63405;BME280;49541;57.840;12.306;2023-06-22T22:29:32;100715.78;;;17.49;69.59
63405;BME280;49541;57.840;12.306;2023-06-22T22:34:32;100723.50;;;17.44;69.98
63405;BME280;49541;57.840;12.306;2023-06-22T22:39:36;100728.22;;;17.42;70.33
63405;BME280;49541;57.840;12.306;2023-06-22T22:44:39;100729.56;;;17.46;69.98
63405;BME280;49541;57.840;12.306;2023-06-22T22:49:39;100726.13;;;18.00;70.23
63405;BME280;49541;57.840;12.306;2023-06-22T22:54:39;100733.34;;;17.99;70.50
63405;BME280;49541;57.840;12.306;2023-06-22T22:59:42;100728.09;;;17.75;71.20
63405;BME280;49541;57.840;12.306;2023-06-22T23:04:43;100715.50;;;17.36;72.90
63405;BME280;49541;57.840;12.306;2023-06-22T23:09:43;100725.25;;;17.29;73.51
63405;BME280;49541;57.840;12.306;2023-06-22T23:14:44;100713.31;;;17.31;73.22
63405;BME280;49541;57.840;12.306;2023-06-22T23:19:44;100705.88;;;16.94;74.55
63405;BME280;49541;57.840;12.306;2023-06-22T23:24:46;100691.28;;;16.72;75.23
63405;BME280;49541;57.840;12.306;2023-06-22T23:29:46;100680.38;;;16.65;75.85
63405;BME280;49541;57.840;12.306;2023-06-22T23:34:47;100680.66;;;16.78;75.08
63405;BME280;49541;57.840;12.306;2023-06-22T23:39:47;100669.56;;;16.73;74.63
63405;BME280;49541;57.840;12.306;2023-06-22T23:44:47;100672.25;;;16.90;73.70
63405;BME280;49541;57.840;12.306;2023-06-22T23:49:47;100670.53;;;17.05;72.74
63405;BME280;49541;57.840;12.306;2023-06-22T23:54:47;100664.88;;;16.75;74.80
63405;BME280;49541;57.840;12.306;2023-06-22T23:59:48;100663.78;;;16.37;75.31
